sensor_id;sensor_type;location;lat;lon;timestamp;P1;durP1;ratioP1;P2;durP2;ratioP2
42104;SDS011;70664;51.472;5.712;2023-09-30T00:00:52;6.50;;;2.50;;
42104;SDS011;70664;51.472;5.712;2023-09-30T00:03:17;6.35;;;2.38;;
42104;SDS011;70664;51.472;5.712;2023-09-30T00:05:43;4.75;;;2.38;;
42104;SDS011;70664;51.472;5.712;2023-09-30T00:08:09;5.65;;;2.33;;
42104;SDS011;70664;51.472;5.712;2023-09-30T00:10:36;6.20;;;2.60;;
42104;SDS011;70664;51.472;5.712;2023-09-30T00:13:02;4.45;;;2.03;;
42104;SDS011;70664;51.472;5.712;2023-09-30T00:15:28;6.30;;;2.40;;
42104;SDS011;70664;51.472;5.712;2023-09-30T00:17:54;5.95;;;2.67;;
42104;SDS011;70664;51.472;5.712;2023-09-30T00:20:20;5.53;;;2.50;;
42104;SDS011;70664;51.472;5.712;2023-09-30T00:22:45;7.13;;;2.15;;
42104;SDS011;70664;51.472;5.712;2023-09-30T00:25:11;7.28;;;2.40;;
42104;SDS011;70664;51.472;5.712;2023-09-30T00:27:37;6.65;;;2.53;;
42104;SDS011;70664;51.472;5.712;2023-09-30T00:30:03;4.40;;;2.03;;
42104;SDS011;70664;51.472;5.712;2023-09-30T00:32:31;6.90;;;2.58;;
42104;SDS011;70664;51.472;5.712;2023-09-30T00:34:57;6.47;;;2.50;;
42104;SDS011;70664;51.472;5.712;2023-09-30T00:37:24;6.03;;;2.33;;
42104;SDS011;70664;51.472;5.712;2023-09-30T00:39:49;6.18;;;2.50;;
42104;SDS011;70664;51.472;5.712;2023-09-30T00:42:15;5.22;;;2.58;;
42104;SDS011;70664;51.472;5.712;2023-09-30T00:44:41;4.45;;;2.35;;
42104;SDS011;70664;51.472;5.712;2023-09-30T00:47:07;4.03;;;2.15;;
42104;SDS011;70664;51.472;5.712;2023-09-30T00:49:33;4.43;;;2.40;;
42104;SDS011;70664;51.472;5.712;2023-09-30T00:51:59;5.13;;;2.55;;
42104;SDS011;70664;51.472;5.712;2023-09-30T00:54:27;5.10;;;2.30;;
42104;SDS011;70664;51.472;5.712;2023-09-30T00:56:55;6.15;;;2.50;;
42104;SDS011;70664;51.472;5.712;2023-09-30T00:59:21;6.35;;;2.40;;
42104;SDS011;70664;51.472;5.712;2023-09-30T01:01:47;5.63;;;2.47;;
42104;SDS011;70664;51.472;5.712;2023-09-30T01:04:14;4.28;;;2.22;;
42104;SDS011;70664;51.472;5.712;2023-09-30T01:06:40;3.25;;;1.95;;
42104;SDS011;70664;51.472;5.712;2023-09-30T01:09:09;5.53;;;2.35;;
42104;SDS011;70664;51.472;5.712;2023-09-30T01:11:35;5.07;;;2.50;;
42104;SDS011;70664;51.472;5.712;2023-09-30T01:14:01;6.05;;;2.22;;
42104;SDS011;70664;51.472;5.712;2023-09-30T01:16:27;4.80;;;2.22;;
42104;SDS011;70664;51.472;5.712;2023-09-30T01:18:52;4.68;;;2.47;;
42104;SDS011;70664;51.472;5.712;2023-09-30T01:21:18;4.28;;;2.30;;
42104;SDS011;70664;51.472;5.712;2023-09-30T01:23:45;6.75;;;2.53;;
42104;SDS011;70664;51.472;5.712;2023-09-30T01:26:12;5.38;;;2.55;;
42104;SDS011;70664;51.472;5.712;2023-09-30T01:28:39;8.10;;;2.72;;
42104;SDS011;70664;51.472;5.712;2023-09-30T01:31:05;5.55;;;2.38;;
42104;SDS011;70664;51.472;5.712;2023-09-30T01:33:32;3.90;;;2.08;;
42104;SDS011;70664;51.472;5.712;2023-09-30T01:35:58;7.07;;;2.40;;
42104;SDS011;70664;51.472;5.712;2023-09-30T01:38:24;7.10;;;2.25;;
42104;SDS011;70664;51.472;5.712;2023-09-30T01:40:51;5.18;;;2.05;;
42104;SDS011;70664;51.472;5.712;2023-09-30T01:43:17;4.70;;;2.10;;
42104;SDS011;70664;51.472;5.712;2023-09-30T01:45:43;5.55;;;2.78;;
42104;SDS011;70664;51.472;5.712;2023-09-30T01:48:09;6.25;;;2.63;;
42104;SDS011;70664;51.472;5.712;2023-09-30T01:50:36;4.93;;;2.45;;
42104;SDS011;70664;51.472;5.712;2023-09-30T01:53:05;4.72;;;1.92;;
42104;SDS011;70664;51.472;5.712;2023-09-30T01:55:35;4.55;;;2.05;;
42104;SDS011;70664;51.472;5.712;2023-09-30T01:58:02;5.05;;;2.20;;
42104;SDS011;70664;51.472;5.712;2023-09-30T02:00:28;4.32;;;2.22;;
42104;SDS011;70664;51.472;5.712;2023-09-30T02:02:57;6.25;;;2.25;;
42104;SDS011;70664;51.472;5.712;2023-09-30T02:05:23;4.30;;;1.88;;
42104;SDS011;70664;51.472;5.712;2023-09-30T02:07:49;3.85;;;2.30;;
42104;SDS011;70664;51.472;5.712;2023-09-30T02:10:16;4.35;;;2.30;;
42104;SDS011;70664;51.472;5.712;2023-09-30T02:12:45;3.58;;;1.80;;
42104;SDS011;70664;51.472;5.712;2023-09-30T02:15:12;5.35;;;2.10;;
42104;SDS011;70664;51.472;5.712;2023-09-30T02:17:38;5.57;;;2.35;;
42104;SDS011;70664;51.472;5.712;2023-09-30T02:20:05;4.82;;;2.20;;
42104;SDS011;70664;51.472;5.712;2023-09-30T02:22:38;5.43;;;2.28;;
42104;SDS011;70664;51.472;5.712;2023-09-30T02:25:05;5.80;;;2.17;;
42104;SDS011;70664;51.472;5.712;2023-09-30T02:27:32;5.53;;;2.22;;
42104;SDS011;70664;51.472;5.712;2023-09-30T02:29:59;4.55;;;2.20;;
42104;SDS011;70664;51.472;5.712;2023-09-30T02:32:25;4.03;;;2.28;;
42104;SDS011;70664;51.472;5.712;2023-09-30T02:34:51;5.68;;;2.17;;
42104;SDS011;70664;51.472;5.712;2023-09-30T02:37:17;5.32;;;2.60;;
42104;SDS011;70664;51.472;5.712;2023-09-30T02:39:43;5.60;;;2.40;;
42104;SDS011;70664;51.472;5.712;2023-09-30T02:42:09;3.50;;;2.15;;
42104;SDS011;70664;51.472;5.712;2023-09-30T02:44:35;3.63;;;2.28;;
42104;SDS011;70664;51.472;5.712;2023-09-30T02:47:01;4.15;;;1.90;;
42104;SDS011;70664;51.472;5.712;2023-09-30T02:49:27;4.38;;;2.53;;
42104;SDS011;70664;51.472;5.712;2023-09-30T02:51:53;3.78;;;2.15;;
42104;SDS011;70664;51.472;5.712;2023-09-30T02:54:18;5.07;;;2.50;;
42104;SDS011;70664;51.472;5.712;2023-09-30T02:56:44;5.05;;;2.30;;
42104;SDS011;70664;51.472;5.712;2023-09-30T02:59:13;3.45;;;2.13;;
42104;SDS011;70664;51.472;5.712;2023-09-30T03:01:40;4.32;;;2.17;;
42104;SDS011;70664;51.472;5.712;2023-09-30T03:04:06;3.60;;;2.30;;
42104;SDS011;70664;51.472;5.712;2023-09-30T03:06:32;4.50;;;2.40;;
42104;SDS011;70664;51.472;5.712;2023-09-30T03:09:04;4.55;;;2.55;;
42104;SDS011;70664;51.472;5.712;2023-09-30T03:11:30;4.78;;;2.38;;
42104;SDS011;70664;51.472;5.712;2023-09-30T03:13:57;3.85;;;2.00;;
42104;SDS011;70664;51.472;5.712;2023-09-30T03:16:23;5.10;;;2.00;;
42104;SDS011;70664;51.472;5.712;2023-09-30T03:18:50;4.88;;;2.30;;
42104;SDS011;70664;51.472;5.712;2023-09-30T03:21:16;4.22;;;2.60;;
42104;SDS011;70664;51.472;5.712;2023-09-30T03:23:42;4.20;;;2.10;;
42104;SDS011;70664;51.472;5.712;2023-09-30T03:26:08;5.25;;;2.50;;
42104;SDS011;70664;51.472;5.712;2023-09-30T03:28:38;5.57;;;2.00;;
42104;SDS011;70664;51.472;5.712;2023-09-30T03:31:04;5.00;;;2.20;;
42104;SDS011;70664;51.472;5.712;2023-09-30T03:33:32;3.25;;;2.03;;
42104;SDS011;70664;51.472;5.712;2023-09-30T03:35:58;4.97;;;2.10;;
42104;SDS011;70664;51.472;5.712;2023-09-30T03:38:25;4.22;;;2.03;;
42104;SDS011;70664;51.472;5.712;2023-09-30T03:40:51;4.10;;;2.22;;
42104;SDS011;70664;51.472;5.712;2023-09-30T03:43:19;4.07;;;2.08;;
42104;SDS011;70664;51.472;5.712;2023-09-30T03:45:46;4.70;;;2.15;;
42104;SDS011;70664;51.472;5.712;2023-09-30T03:48:12;5.03;;;2.10;;
42104;SDS011;70664;51.472;5.712;2023-09-30T03:50:38;4.53;;;1.95;;
42104;SDS011;70664;51.472;5.712;2023-09-30T03:53:04;4.45;;;2.15;;
42104;SDS011;70664;51.472;5.712;2023-09-30T03:55:34;4.03;;;2.45;;
42104;SDS011;70664;51.472;5.712;2023-09-30T03:58:02;4.25;;;2.47;;
42104;SDS011;70664;51.472;5.712;2023-09-30T04:00:28;4.63;;;2.30;;
42104;SDS011;70664;51.472;5.712;2023-09-30T04:02:54;5.18;;;2.10;;
42104;SDS011;70664;51.472;5.712;2023-09-30T04:05:23;4.35;;;2.35;;
42104;SDS011;70664;51.472;5.712;2023-09-30T04:07:54;3.88;;;2.20;;
42104;SDS011;70664;51.472;5.712;2023-09-30T04:10:23;3.80;;;2.15;;
42104;SDS011;70664;51.472;5.712;2023-09-30T04:12:50;5.15;;;2.30;;
42104;SDS011;70664;51.472;5.712;2023-09-30T04:15:19;4.78;;;2.10;;
42104;SDS011;70664;51.472;5.712;2023-09-30T04:17:45;4.25;;;2.20;;
42104;SDS011;70664;51.472;5.712;2023-09-30T04:20:13;3.78;;;2.00;;
42104;SDS011;70664;51.472;5.712;2023-09-30T04:22:46;4.28;;;2.30;;
42104;SDS011;70664;51.472;5.712;2023-09-30T04:25:13;3.83;;;2.15;;
42104;SDS011;70664;51.472;5.712;2023-09-30T04:27:43;3.40;;;2.15;;
42104;SDS011;70664;51.472;5.712;2023-09-30T04:30:09;2.78;;;1.85;;
42104;SDS011;70664;51.472;5.712;2023-09-30T04:32:36;3.70;;;2.10;;
42104;SDS011;70664;51.472;5.712;2023-09-30T04:35:05;3.28;;;2.10;;
42104;SDS011;70664;51.472;5.712;2023-09-30T04:37:33;4.78;;;2.42;;
42104;SDS011;70664;51.472;5.712;2023-09-30T04:40:03;4.13;;;2.20;;
42104;SDS011;70664;51.472;5.712;2023-09-30T04:42:33;3.42;;;2.33;;
42104;SDS011;70664;51.472;5.712;2023-09-30T04:45:02;3.30;;;2.10;;
42104;SDS011;70664;51.472;5.712;2023-09-30T04:47:31;5.13;;;2.70;;
42104;SDS011;70664;51.472;5.712;2023-09-30T04:49:57;3.72;;;2.17;;
42104;SDS011;70664;51.472;5.712;2023-09-30T04:52:23;2.92;;;2.00;;
42104;SDS011;70664;51.472;5.712;2023-09-30T04:54:52;4.53;;;2.03;;
42104;SDS011;70664;51.472;5.712;2023-09-30T04:57:18;3.60;;;2.00;;
42104;SDS011;70664;51.472;5.712;2023-09-30T04:59:45;4.30;;;2.42;;
42104;SDS011;70664;51.472;5.712;2023-09-30T05:02:11;4.72;;;2.67;;
42104;SDS011;70664;51.472;5.712;2023-09-30T05:04:40;3.50;;;2.35;;
42104;SDS011;70664;51.472;5.712;2023-09-30T05:07:07;4.07;;;2.30;;
42104;SDS011;70664;51.472;5.712;2023-09-30T05:09:33;3.65;;;2.38;;
42104;SDS011;70664;51.472;5.712;2023-09-30T05:11:59;2.90;;;1.90;;
42104;SDS011;70664;51.472;5.712;2023-09-30T05:14:25;3.55;;;2.22;;
42104;SDS011;70664;51.472;5.712;2023-09-30T05:16:53;3.78;;;1.98;;
42104;SDS011;70664;51.472;5.712;2023-09-30T05:19:21;4.82;;;2.20;;
42104;SDS011;70664;51.472;5.712;2023-09-30T05:21:47;5.15;;;2.50;;
42104;SDS011;70664;51.472;5.712;2023-09-30T05:24:14;2.78;;;2.00;;
42104;SDS011;70664;51.472;5.712;2023-09-30T05:26:40;3.35;;;2.10;;
42104;SDS011;70664;51.472;5.712;2023-09-30T05:29:06;3.97;;;2.13;;
42104;SDS011;70664;51.472;5.712;2023-09-30T05:31:32;3.60;;;2.10;;
42104;SDS011;70664;51.472;5.712;2023-09-30T05:33:58;3.70;;;2.25;;
42104;SDS011;70664;51.472;5.712;2023-09-30T05:36:24;2.97;;;1.83;;
42104;SDS011;70664;51.472;5.712;2023-09-30T05:38:50;4.35;;;2.30;;
42104;SDS011;70664;51.472;5.712;2023-09-30T05:41:15;3.00;;;1.90;;
42104;SDS011;70664;51.472;5.712;2023-09-30T05:43:41;4.00;;;2.10;;
42104;SDS011;70664;51.472;5.712;2023-09-30T05:46:08;2.92;;;1.98;;
42104;SDS011;70664;51.472;5.712;2023-09-30T05:48:34;3.60;;;2.10;;
42104;SDS011;70664;51.472;5.712;2023-09-30T05:51:01;3.38;;;2.00;;
42104;SDS011;70664;51.472;5.712;2023-09-30T05:53:28;3.95;;;2.30;;
42104;SDS011;70664;51.472;5.712;2023-09-30T05:55:54;3.28;;;2.10;;
42104;SDS011;70664;51.472;5.712;2023-09-30T05:58:19;4.07;;;1.90;;
42104;SDS011;70664;51.472;5.712;2023-09-30T06:00:45;4.10;;;2.35;;
42104;SDS011;70664;51.472;5.712;2023-09-30T06:03:11;4.55;;;2.25;;
42104;SDS011;70664;51.472;5.712;2023-09-30T06:05:40;8.55;;;2.28;;
42104;SDS011;70664;51.472;5.712;2023-09-30T06:08:07;3.60;;;2.00;;
42104;SDS011;70664;51.472;5.712;2023-09-30T06:10:39;3.65;;;1.85;;
42104;SDS011;70664;51.472;5.712;2023-09-30T06:13:12;4.15;;;2.03;;
42104;SDS011;70664;51.472;5.712;2023-09-30T06:15:39;3.47;;;2.03;;
42104;SDS011;70664;51.472;5.712;2023-09-30T06:18:06;3.85;;;2.28;;
42104;SDS011;70664;51.472;5.712;2023-09-30T06:20:35;3.60;;;2.20;;
42104;SDS011;70664;51.472;5.712;2023-09-30T06:23:01;2.78;;;1.80;;
42104;SDS011;70664;51.472;5.712;2023-09-30T06:25:27;4.90;;;2.25;;
42104;SDS011;70664;51.472;5.712;2023-09-30T06:27:55;3.60;;;2.00;;
42104;SDS011;70664;51.472;5.712;2023-09-30T06:30:21;3.65;;;2.00;;
42104;SDS011;70664;51.472;5.712;2023-09-30T06:32:54;3.13;;;1.95;;
42104;SDS011;70664;51.472;5.712;2023-09-30T06:35:29;3.42;;;1.95;;
42104;SDS011;70664;51.472;5.712;2023-09-30T06:37:58;2.72;;;2.08;;
42104;SDS011;70664;51.472;5.712;2023-09-30T06:40:24;4.43;;;2.05;;
42104;SDS011;70664;51.472;5.712;2023-09-30T06:42:50;4.25;;;1.92;;
42104;SDS011;70664;51.472;5.712;2023-09-30T06:45:17;3.35;;;1.90;;
42104;SDS011;70664;51.472;5.712;2023-09-30T06:47:42;3.60;;;1.88;;
42104;SDS011;70664;51.472;5.712;2023-09-30T06:50:11;3.53;;;2.00;;
42104;SDS011;70664;51.472;5.712;2023-09-30T06:52:41;8.52;;;2.00;;
42104;SDS011;70664;51.472;5.712;2023-09-30T06:55:10;4.18;;;2.13;;
42104;SDS011;70664;51.472;5.712;2023-09-30T06:57:40;5.18;;;2.25;;
42104;SDS011;70664;51.472;5.712;2023-09-30T07:00:09;6.03;;;2.00;;
42104;SDS011;70664;51.472;5.712;2023-09-30T07:02:38;6.93;;;2.35;;
42104;SDS011;70664;51.472;5.712;2023-09-30T07:05:06;4.47;;;2.20;;
42104;SDS011;70664;51.472;5.712;2023-09-30T07:07:34;9.95;;;1.80;;
42104;SDS011;70664;51.472;5.712;2023-09-30T07:10:00;4.25;;;2.17;;
42104;SDS011;70664;51.472;5.712;2023-09-30T07:12:25;5.63;;;2.17;;
42104;SDS011;70664;51.472;5.712;2023-09-30T07:14:51;5.97;;;2.15;;
42104;SDS011;70664;51.472;5.712;2023-09-30T07:17:18;3.80;;;2.15;;
42104;SDS011;70664;51.472;5.712;2023-09-30T07:19:43;7.40;;;2.38;;
42104;SDS011;70664;51.472;5.712;2023-09-30T07:22:09;5.53;;;2.15;;
42104;SDS011;70664;51.472;5.712;2023-09-30T07:24:35;3.88;;;2.65;;
42104;SDS011;70664;51.472;5.712;2023-09-30T07:27:01;7.10;;;2.20;;
42104;SDS011;70664;51.472;5.712;2023-09-30T07:29:27;3.60;;;1.67;;
42104;SDS011;70664;51.472;5.712;2023-09-30T07:31:53;5.35;;;2.08;;
42104;SDS011;70664;51.472;5.712;2023-09-30T07:34:19;5.35;;;2.10;;
42104;SDS011;70664;51.472;5.712;2023-09-30T07:36:45;5.68;;;2.10;;
42104;SDS011;70664;51.472;5.712;2023-09-30T07:39:11;4.35;;;2.00;;
42104;SDS011;70664;51.472;5.712;2023-09-30T07:41:37;5.07;;;2.28;;
42104;SDS011;70664;51.472;5.712;2023-09-30T07:44:03;7.03;;;2.00;;
42104;SDS011;70664;51.472;5.712;2023-09-30T07:46:30;4.18;;;2.30;;
42104;SDS011;70664;51.472;5.712;2023-09-30T07:48:56;4.68;;;2.10;;
42104;SDS011;70664;51.472;5.712;2023-09-30T07:51:23;5.93;;;1.90;;
42104;SDS011;70664;51.472;5.712;2023-09-30T07:53:49;4.30;;;1.77;;
42104;SDS011;70664;51.472;5.712;2023-09-30T07:56:15;4.30;;;2.03;;
42104;SDS011;70664;51.472;5.712;2023-09-30T07:58:41;5.60;;;2.17;;
42104;SDS011;70664;51.472;5.712;2023-09-30T08:01:07;5.30;;;2.10;;
42104;SDS011;70664;51.472;5.712;2023-09-30T08:03:33;6.70;;;2.22;;
42104;SDS011;70664;51.472;5.712;2023-09-30T08:05:59;5.22;;;2.20;;
42104;SDS011;70664;51.472;5.712;2023-09-30T08:08:25;6.57;;;1.80;;
42104;SDS011;70664;51.472;5.712;2023-09-30T08:10:51;5.22;;;1.90;;
42104;SDS011;70664;51.472;5.712;2023-09-30T08:13:21;4.10;;;2.15;;
42104;SDS011;70664;51.472;5.712;2023-09-30T08:15:49;3.85;;;2.03;;
42104;SDS011;70664;51.472;5.712;2023-09-30T08:18:16;4.53;;;1.75;;
42104;SDS011;70664;51.472;5.712;2023-09-30T08:20:42;4.45;;;2.10;;
42104;SDS011;70664;51.472;5.712;2023-09-30T08:23:08;5.43;;;2.03;;
42104;SDS011;70664;51.472;5.712;2023-09-30T08:25:34;6.63;;;2.08;;
42104;SDS011;70664;51.472;5.712;2023-09-30T08:28:00;4.75;;;1.60;;
42104;SDS011;70664;51.472;5.712;2023-09-30T08:30:25;4.95;;;1.88;;
42104;SDS011;70664;51.472;5.712;2023-09-30T08:32:51;9.05;;;2.10;;
42104;SDS011;70664;51.472;5.712;2023-09-30T08:35:17;4.47;;;2.30;;
42104;SDS011;70664;51.472;5.712;2023-09-30T08:37:43;3.25;;;1.92;;
42104;SDS011;70664;51.472;5.712;2023-09-30T08:40:09;3.03;;;1.92;;
42104;SDS011;70664;51.472;5.712;2023-09-30T08:42:36;5.80;;;2.10;;
42104;SDS011;70664;51.472;5.712;2023-09-30T08:45:04;2.80;;;1.95;;
42104;SDS011;70664;51.472;5.712;2023-09-30T08:47:35;9.82;;;3.35;;
42104;SDS011;70664;51.472;5.712;2023-09-30T08:50:01;11.68;;;5.35;;
42104;SDS011;70664;51.472;5.712;2023-09-30T08:52:33;12.57;;;4.97;;
42104;SDS011;70664;51.472;5.712;2023-09-30T08:55:01;11.43;;;5.50;;
42104;SDS011;70664;51.472;5.712;2023-09-30T08:57:27;6.60;;;3.60;;
42104;SDS011;70664;51.472;5.712;2023-09-30T08:59:54;7.40;;;2.90;;
42104;SDS011;70664;51.472;5.712;2023-09-30T09:02:20;8.23;;;2.78;;
42104;SDS011;70664;51.472;5.712;2023-09-30T09:04:46;7.03;;;2.78;;
42104;SDS011;70664;51.472;5.712;2023-09-30T09:07:14;4.60;;;2.67;;
42104;SDS011;70664;51.472;5.712;2023-09-30T09:09:40;4.53;;;2.45;;
42104;SDS011;70664;51.472;5.712;2023-09-30T09:12:19;7.95;;;3.05;;
42104;SDS011;70664;51.472;5.712;2023-09-30T09:14:45;7.05;;;3.00;;
42104;SDS011;70664;51.472;5.712;2023-09-30T09:17:12;13.68;;;3.45;;
42104;SDS011;70664;51.472;5.712;2023-09-30T09:19:39;9.13;;;3.65;;
42104;SDS011;70664;51.472;5.712;2023-09-30T09:22:04;10.07;;;2.92;;
42104;SDS011;70664;51.472;5.712;2023-09-30T09:24:32;6.60;;;3.00;;
42104;SDS011;70664;51.472;5.712;2023-09-30T09:27:07;8.15;;;2.50;;
42104;SDS011;70664;51.472;5.712;2023-09-30T09:29:37;9.13;;;2.58;;
42104;SDS011;70664;51.472;5.712;2023-09-30T09:34:41;7.90;;;2.92;;
42104;SDS011;70664;51.472;5.712;2023-09-30T09:37:20;8.20;;;3.45;;
42104;SDS011;70664;51.472;5.712;2023-09-30T09:39:54;7.95;;;3.50;;
42104;SDS011;70664;51.472;5.712;2023-09-30T09:42:24;12.23;;;4.90;;
42104;SDS011;70664;51.472;5.712;2023-09-30T09:44:50;12.10;;;4.60;;
42104;SDS011;70664;51.472;5.712;2023-09-30T09:47:22;11.02;;;4.20;;
42104;SDS011;70664;51.472;5.712;2023-09-30T09:49:49;10.50;;;3.92;;
42104;SDS011;70664;51.472;5.712;2023-09-30T09:52:17;9.15;;;3.65;;
42104;SDS011;70664;51.472;5.712;2023-09-30T09:54:45;7.40;;;3.45;;
42104;SDS011;70664;51.472;5.712;2023-09-30T09:57:12;7.70;;;3.42;;
42104;SDS011;70664;51.472;5.712;2023-09-30T09:59:39;8.52;;;3.38;;
42104;SDS011;70664;51.472;5.712;2023-09-30T10:02:11;11.68;;;3.38;;
42104;SDS011;70664;51.472;5.712;2023-09-30T10:04:40;6.35;;;3.05;;
42104;SDS011;70664;51.472;5.712;2023-09-30T10:07:20;8.10;;;3.30;;
42104;SDS011;70664;51.472;5.712;2023-09-30T10:09:54;8.80;;;3.15;;
42104;SDS011;70664;51.472;5.712;2023-09-30T10:12:24;7.75;;;2.97;;
42104;SDS011;70664;51.472;5.712;2023-09-30T10:14:51;7.55;;;3.38;;
42104;SDS011;70664;51.472;5.712;2023-09-30T10:17:18;7.93;;;3.53;;
42104;SDS011;70664;51.472;5.712;2023-09-30T10:20:04;6.95;;;3.08;;
42104;SDS011;70664;51.472;5.712;2023-09-30T10:22:31;6.78;;;3.10;;
42104;SDS011;70664;51.472;5.712;2023-09-30T10:24:58;8.23;;;3.20;;
42104;SDS011;70664;51.472;5.712;2023-09-30T10:30:05;7.38;;;2.95;;
42104;SDS011;70664;51.472;5.712;2023-09-30T10:33:11;5.20;;;2.70;;
42104;SDS011;70664;51.472;5.712;2023-09-30T10:40:47;5.97;;;3.00;;
42104;SDS011;70664;51.472;5.712;2023-09-30T10:43:29;7.80;;;3.10;;
42104;SDS011;70664;51.472;5.712;2023-09-30T10:46:03;6.68;;;2.95;;
42104;SDS011;70664;51.472;5.712;2023-09-30T10:48:51;6.75;;;3.20;;
42104;SDS011;70664;51.472;5.712;2023-09-30T10:51:18;8.20;;;3.22;;
42104;SDS011;70664;51.472;5.712;2023-09-30T10:53:50;5.93;;;2.95;;
42104;SDS011;70664;51.472;5.712;2023-09-30T10:56:19;6.85;;;3.10;;
42104;SDS011;70664;51.472;5.712;2023-09-30T10:58:52;7.32;;;2.67;;
42104;SDS011;70664;51.472;5.712;2023-09-30T11:01:21;6.68;;;3.03;;
42104;SDS011;70664;51.472;5.712;2023-09-30T11:03:49;8.57;;;3.03;;
42104;SDS011;70664;51.472;5.712;2023-09-30T11:08:53;5.47;;;2.70;;
42104;SDS011;70664;51.472;5.712;2023-09-30T11:11:41;9.07;;;2.80;;
42104;SDS011;70664;51.472;5.712;2023-09-30T11:16:46;8.55;;;3.20;;
42104;SDS011;70664;51.472;5.712;2023-09-30T11:19:14;8.02;;;3.28;;
42104;SDS011;70664;51.472;5.712;2023-09-30T11:21:40;6.43;;;2.75;;
42104;SDS011;70664;51.472;5.712;2023-09-30T11:24:09;7.10;;;2.85;;
42104;SDS011;70664;51.472;5.712;2023-09-30T11:26:36;8.60;;;2.90;;
42104;SDS011;70664;51.472;5.712;2023-09-30T11:29:06;5.55;;;2.78;;
42104;SDS011;70664;51.472;5.712;2023-09-30T11:31:38;5.60;;;2.78;;
42104;SDS011;70664;51.472;5.712;2023-09-30T11:34:08;7.53;;;2.95;;
42104;SDS011;70664;51.472;5.712;2023-09-30T11:36:37;7.68;;;3.00;;
42104;SDS011;70664;51.472;5.712;2023-09-30T11:39:21;7.97;;;2.80;;
42104;SDS011;70664;51.472;5.712;2023-09-30T11:41:51;6.80;;;2.58;;
42104;SDS011;70664;51.472;5.712;2023-09-30T11:44:17;5.18;;;2.70;;
42104;SDS011;70664;51.472;5.712;2023-09-30T11:46:48;5.93;;;2.65;;
42104;SDS011;70664;51.472;5.712;2023-09-30T11:52:08;6.63;;;3.13;;
42104;SDS011;70664;51.472;5.712;2023-09-30T11:54:36;8.45;;;2.83;;
42104;SDS011;70664;51.472;5.712;2023-09-30T11:57:06;9.00;;;3.42;;
42104;SDS011;70664;51.472;5.712;2023-09-30T11:59:36;12.32;;;3.53;;
42104;SDS011;70664;51.472;5.712;2023-09-30T12:02:03;7.20;;;3.20;;
42104;SDS011;70664;51.472;5.712;2023-09-30T12:04:34;8.23;;;3.35;;
42104;SDS011;70664;51.472;5.712;2023-09-30T12:07:00;7.57;;;3.20;;
42104;SDS011;70664;51.472;5.712;2023-09-30T12:09:26;11.25;;;3.40;;
42104;SDS011;70664;51.472;5.712;2023-09-30T12:11:53;9.60;;;3.20;;
42104;SDS011;70664;51.472;5.712;2023-09-30T12:14:20;8.27;;;3.13;;
42104;SDS011;70664;51.472;5.712;2023-09-30T12:16:47;8.18;;;3.88;;
42104;SDS011;70664;51.472;5.712;2023-09-30T12:19:14;8.63;;;3.03;;
42104;SDS011;70664;51.472;5.712;2023-09-30T12:21:40;7.85;;;3.20;;
42104;SDS011;70664;51.472;5.712;2023-09-30T12:24:07;7.72;;;3.60;;
42104;SDS011;70664;51.472;5.712;2023-09-30T12:26:39;6.90;;;3.20;;
42104;SDS011;70664;51.472;5.712;2023-09-30T12:29:06;8.65;;;3.55;;
42104;SDS011;70664;51.472;5.712;2023-09-30T12:31:34;7.70;;;3.42;;
42104;SDS011;70664;51.472;5.712;2023-09-30T12:33:59;13.13;;;3.50;;
42104;SDS011;70664;51.472;5.712;2023-09-30T12:36:25;10.57;;;3.63;;
42104;SDS011;70664;51.472;5.712;2023-09-30T12:38:51;8.57;;;3.55;;
42104;SDS011;70664;51.472;5.712;2023-09-30T12:41:17;10.63;;;3.42;;
42104;SDS011;70664;51.472;5.712;2023-09-30T12:43:44;7.90;;;3.15;;
42104;SDS011;70664;51.472;5.712;2023-09-30T12:46:10;9.40;;;3.45;;
42104;SDS011;70664;51.472;5.712;2023-09-30T12:48:38;7.43;;;3.42;;
42104;SDS011;70664;51.472;5.712;2023-09-30T12:51:05;6.88;;;3.15;;
42104;SDS011;70664;51.472;5.712;2023-09-30T12:53:32;7.50;;;3.63;;
42104;SDS011;70664;51.472;5.712;2023-09-30T12:55:58;7.20;;;3.38;;
42104;SDS011;70664;51.472;5.712;2023-09-30T12:58:25;8.18;;;3.47;;
42104;SDS011;70664;51.472;5.712;2023-09-30T13:00:53;7.30;;;3.22;;
42104;SDS011;70664;51.472;5.712;2023-09-30T13:03:21;6.55;;;2.92;;
42104;SDS011;70664;51.472;5.712;2023-09-30T13:05:47;9.73;;;3.47;;
42104;SDS011;70664;51.472;5.712;2023-09-30T13:08:13;7.82;;;2.97;;
42104;SDS011;70664;51.472;5.712;2023-09-30T13:10:39;9.15;;;3.58;;
42104;SDS011;70664;51.472;5.712;2023-09-30T13:13:05;22.23;;;6.78;;
42104;SDS011;70664;51.472;5.712;2023-09-30T13:15:32;32.35;;;6.90;;
42104;SDS011;70664;51.472;5.712;2023-09-30T13:17:58;27.30;;;7.45;;
42104;SDS011;70664;51.472;5.712;2023-09-30T13:20:24;19.98;;;5.15;;
42104;SDS011;70664;51.472;5.712;2023-09-30T13:22:50;11.10;;;4.32;;
42104;SDS011;70664;51.472;5.712;2023-09-30T13:25:16;20.92;;;5.63;;
42104;SDS011;70664;51.472;5.712;2023-09-30T13:27:42;39.35;;;11.68;;
42104;SDS011;70664;51.472;5.712;2023-09-30T13:30:08;30.08;;;10.07;;
42104;SDS011;70664;51.472;5.712;2023-09-30T13:32:35;17.10;;;5.43;;
42104;SDS011;70664;51.472;5.712;2023-09-30T13:35:04;14.50;;;4.95;;
42104;SDS011;70664;51.472;5.712;2023-09-30T13:37:31;14.70;;;5.47;;
42104;SDS011;70664;51.472;5.712;2023-09-30T13:40:01;18.77;;;6.03;;
42104;SDS011;70664;51.472;5.712;2023-09-30T13:42:36;28.67;;;9.68;;
42104;SDS011;70664;51.472;5.712;2023-09-30T13:45:02;17.20;;;5.63;;
42104;SDS011;70664;51.472;5.712;2023-09-30T13:47:28;13.13;;;5.30;;
42104;SDS011;70664;51.472;5.712;2023-09-30T13:49:54;14.45;;;5.20;;
42104;SDS011;70664;51.472;5.712;2023-09-30T13:52:21;10.77;;;4.15;;
42104;SDS011;70664;51.472;5.712;2023-09-30T13:54:47;16.02;;;4.45;;
42104;SDS011;70664;51.472;5.712;2023-09-30T13:57:13;14.55;;;4.15;;
42104;SDS011;70664;51.472;5.712;2023-09-30T13:59:39;8.10;;;3.92;;
42104;SDS011;70664;51.472;5.712;2023-09-30T14:02:07;7.82;;;3.50;;
42104;SDS011;70664;51.472;5.712;2023-09-30T14:04:33;10.00;;;3.72;;
42104;SDS011;70664;51.472;5.712;2023-09-30T14:07:00;10.15;;;3.65;;
42104;SDS011;70664;51.472;5.712;2023-09-30T14:09:27;6.90;;;3.75;;
42104;SDS011;70664;51.472;5.712;2023-09-30T14:11:54;12.48;;;4.35;;
42104;SDS011;70664;51.472;5.712;2023-09-30T14:14:20;13.90;;;4.22;;
42104;SDS011;70664;51.472;5.712;2023-09-30T14:16:46;10.02;;;3.92;;
42104;SDS011;70664;51.472;5.712;2023-09-30T14:19:12;8.02;;;3.90;;
42104;SDS011;70664;51.472;5.712;2023-09-30T14:21:39;8.15;;;4.25;;
42104;SDS011;70664;51.472;5.712;2023-09-30T14:24:05;7.97;;;3.67;;
42104;SDS011;70664;51.472;5.712;2023-09-30T14:26:32;7.07;;;3.55;;
42104;SDS011;70664;51.472;5.712;2023-09-30T14:28:58;6.38;;;3.47;;
42104;SDS011;70664;51.472;5.712;2023-09-30T14:31:25;7.78;;;3.83;;
42104;SDS011;70664;51.472;5.712;2023-09-30T14:33:51;10.35;;;4.03;;
42104;SDS011;70664;51.472;5.712;2023-09-30T14:36:17;8.93;;;4.05;;
42104;SDS011;70664;51.472;5.712;2023-09-30T14:38:44;10.73;;;4.10;;
42104;SDS011;70664;51.472;5.712;2023-09-30T14:41:11;6.97;;;3.65;;
42104;SDS011;70664;51.472;5.712;2023-09-30T14:43:40;8.07;;;4.00;;
42104;SDS011;70664;51.472;5.712;2023-09-30T14:46:06;8.15;;;4.05;;
42104;SDS011;70664;51.472;5.712;2023-09-30T14:48:33;6.75;;;3.90;;
42104;SDS011;70664;51.472;5.712;2023-09-30T14:51:00;7.03;;;3.80;;
42104;SDS011;70664;51.472;5.712;2023-09-30T14:53:29;6.90;;;3.88;;
42104;SDS011;70664;51.472;5.712;2023-09-30T14:55:56;7.80;;;3.97;;
42104;SDS011;70664;51.472;5.712;2023-09-30T14:58:21;10.15;;;3.88;;
42104;SDS011;70664;51.472;5.712;2023-09-30T15:00:47;9.70;;;4.25;;
42104;SDS011;70664;51.472;5.712;2023-09-30T15:03:13;7.30;;;4.00;;
42104;SDS011;70664;51.472;5.712;2023-09-30T15:05:39;7.47;;;3.80;;